sensor_id;sensor_type;location;lat;lon;timestamp;P1;durP1;ratioP1;P2;durP2;ratioP2
77544;SDS011;66672;50.328;7.610;2023-04-25T00:01:37;12.38;;;7.85;;
77544;SDS011;66672;50.328;7.610;2023-04-25T00:04:03;13.30;;;8.07;;
77544;SDS011;66672;50.328;7.610;2023-04-25T00:06:37;17.80;;;8.63;;
77544;SDS011;66672;50.328;7.610;2023-04-25T00:09:03;14.02;;;7.72;;
77544;SDS011;66672;50.328;7.610;2023-04-25T00:11:32;17.13;;;7.70;;
77544;SDS011;66672;50.328;7.610;2023-04-25T00:13:57;16.60;;;9.25;;
77544;SDS011;66672;50.328;7.610;2023-04-25T00:16:22;13.10;;;7.97;;
77544;SDS011;66672;50.328;7.610;2023-04-25T00:18:48;15.18;;;8.35;;
77544;SDS011;66672;50.328;7.610;2023-04-25T00:21:16;12.95;;;7.18;;
77544;SDS011;66672;50.328;7.610;2023-04-25T00:23:43;12.50;;;7.32;;
77544;SDS011;66672;50.328;7.610;2023-04-25T00:26:08;15.63;;;8.70;;
77544;SDS011;66672;50.328;7.610;2023-04-25T00:28:33;15.60;;;8.32;;
77544;SDS011;66672;50.328;7.610;2023-04-25T00:30:58;14.75;;;8.18;;
77544;SDS011;66672;50.328;7.610;2023-04-25T00:33:23;13.57;;;7.78;;
77544;SDS011;66672;50.328;7.610;2023-04-25T00:35:49;19.15;;;10.35;;
77544;SDS011;66672;50.328;7.610;2023-04-25T00:38:14;13.68;;;8.23;;
77544;SDS011;66672;50.328;7.610;2023-04-25T00:40:39;15.38;;;7.72;;
77544;SDS011;66672;50.328;7.610;2023-04-25T00:43:05;14.88;;;7.45;;
77544;SDS011;66672;50.328;7.610;2023-04-25T00:45:30;13.02;;;6.60;;
77544;SDS011;66672;50.328;7.610;2023-04-25T00:47:55;10.40;;;6.03;;
77544;SDS011;66672;50.328;7.610;2023-04-25T00:50:21;11.30;;;6.70;;
77544;SDS011;66672;50.328;7.610;2023-04-25T00:52:46;11.95;;;6.93;;
77544;SDS011;66672;50.328;7.610;2023-04-25T00:55:12;14.02;;;6.63;;
77544;SDS011;66672;50.328;7.610;2023-04-25T00:57:37;12.88;;;6.50;;
77544;SDS011;66672;50.328;7.610;2023-04-25T01:00:03;13.75;;;7.10;;
77544;SDS011;66672;50.328;7.610;2023-04-25T01:02:30;12.90;;;6.05;;
77544;SDS011;66672;50.328;7.610;2023-04-25T01:04:56;12.80;;;6.18;;
77544;SDS011;66672;50.328;7.610;2023-04-25T01:07:21;14.77;;;6.85;;
77544;SDS011;66672;50.328;7.610;2023-04-25T01:09:46;11.57;;;6.35;;
77544;SDS011;66672;50.328;7.610;2023-04-25T01:12:11;13.13;;;6.43;;
77544;SDS011;66672;50.328;7.610;2023-04-25T01:14:37;15.73;;;6.82;;
77544;SDS011;66672;50.328;7.610;2023-04-25T01:17:02;12.40;;;6.30;;
77544;SDS011;66672;50.328;7.610;2023-04-25T01:19:27;12.05;;;5.97;;
77544;SDS011;66672;50.328;7.610;2023-04-25T01:21:53;10.30;;;5.90;;
77544;SDS011;66672;50.328;7.610;2023-04-25T01:24:18;11.00;;;5.88;;
77544;SDS011;66672;50.328;7.610;2023-04-25T01:26:43;15.45;;;7.40;;
77544;SDS011;66672;50.328;7.610;2023-04-25T01:29:14;13.45;;;7.38;;
77544;SDS011;66672;50.328;7.610;2023-04-25T01:31:39;16.45;;;6.93;;
77544;SDS011;66672;50.328;7.610;2023-04-25T01:34:04;13.95;;;6.18;;
77544;SDS011;66672;50.328;7.610;2023-04-25T01:36:30;11.65;;;5.75;;
77544;SDS011;66672;50.328;7.610;2023-04-25T01:38:56;12.13;;;6.45;;
77544;SDS011;66672;50.328;7.610;2023-04-25T01:41:21;12.02;;;6.05;;
77544;SDS011;66672;50.328;7.610;2023-04-25T01:43:48;11.57;;;5.88;;
77544;SDS011;66672;50.328;7.610;2023-04-25T01:46:13;23.05;;;6.90;;
77544;SDS011;66672;50.328;7.610;2023-04-25T01:48:38;11.27;;;5.97;;
77544;SDS011;66672;50.328;7.610;2023-04-25T01:51:03;14.77;;;7.30;;
77544;SDS011;66672;50.328;7.610;2023-04-25T01:53:29;9.88;;;5.70;;
77544;SDS011;66672;50.328;7.610;2023-04-25T01:55:54;12.93;;;6.43;;
77544;SDS011;66672;50.328;7.610;2023-04-25T01:58:19;11.27;;;5.68;;
77544;SDS011;66672;50.328;7.610;2023-04-25T02:00:45;11.00;;;5.50;;
77544;SDS011;66672;50.328;7.610;2023-04-25T02:03:11;14.25;;;6.38;;
77544;SDS011;66672;50.328;7.610;2023-04-25T02:05:36;12.98;;;6.43;;
77544;SDS011;66672;50.328;7.610;2023-04-25T02:08:02;12.85;;;6.45;;
77544;SDS011;66672;50.328;7.610;2023-04-25T02:10:28;12.13;;;6.53;;
77544;SDS011;66672;50.328;7.610;2023-04-25T02:12:53;12.70;;;6.45;;
77544;SDS011;66672;50.328;7.610;2023-04-25T02:15:18;10.48;;;6.15;;
77544;SDS011;66672;50.328;7.610;2023-04-25T02:17:44;13.30;;;6.50;;
77544;SDS011;66672;50.328;7.610;2023-04-25T02:20:10;17.55;;;7.00;;
77544;SDS011;66672;50.328;7.610;2023-04-25T02:22:35;11.93;;;5.65;;
77544;SDS011;66672;50.328;7.610;2023-04-25T02:25:01;15.90;;;6.68;;
77544;SDS011;66672;50.328;7.610;2023-04-25T02:27:27;12.85;;;6.70;;
77544;SDS011;66672;50.328;7.610;2023-04-25T02:29:52;14.77;;;6.85;;
77544;SDS011;66672;50.328;7.610;2023-04-25T02:32:17;14.55;;;6.47;;
77544;SDS011;66672;50.328;7.610;2023-04-25T02:34:42;16.58;;;7.63;;
77544;SDS011;66672;50.328;7.610;2023-04-25T02:37:08;14.07;;;6.65;;
77544;SDS011;66672;50.328;7.610;2023-04-25T02:39:33;14.10;;;6.63;;
77544;SDS011;66672;50.328;7.610;2023-04-25T02:41:58;14.05;;;6.30;;
77544;SDS011;66672;50.328;7.610;2023-04-25T02:44:23;10.63;;;6.32;;
77544;SDS011;66672;50.328;7.610;2023-04-25T02:46:48;12.60;;;5.82;;
77544;SDS011;66672;50.328;7.610;2023-04-25T02:49:13;12.07;;;6.55;;
77544;SDS011;66672;50.328;7.610;2023-04-25T02:51:39;14.88;;;6.75;;
77544;SDS011;66672;50.328;7.610;2023-04-25T02:54:04;15.07;;;7.18;;
77544;SDS011;66672;50.328;7.610;2023-04-25T02:56:29;11.52;;;6.10;;
77544;SDS011;66672;50.328;7.610;2023-04-25T02:58:54;14.52;;;6.53;;
77544;SDS011;66672;50.328;7.610;2023-04-25T03:01:19;14.27;;;6.93;;
77544;SDS011;66672;50.328;7.610;2023-04-25T03:03:45;15.50;;;7.03;;
77544;SDS011;66672;50.328;7.610;2023-04-25T03:06:10;14.25;;;6.40;;
77544;SDS011;66672;50.328;7.610;2023-04-25T03:08:35;12.32;;;6.28;;
77544;SDS011;66672;50.328;7.610;2023-04-25T03:11:01;13.70;;;6.00;;
77544;SDS011;66672;50.328;7.610;2023-04-25T03:13:26;16.98;;;7.03;;
77544;SDS011;66672;50.328;7.610;2023-04-25T03:15:52;16.08;;;6.63;;
77544;SDS011;66672;50.328;7.610;2023-04-25T03:18:17;16.95;;;7.03;;
77544;SDS011;66672;50.328;7.610;2023-04-25T03:20:42;15.15;;;6.82;;
77544;SDS011;66672;50.328;7.610;2023-04-25T03:23:08;16.88;;;6.97;;
77544;SDS011;66672;50.328;7.610;2023-04-25T03:25:33;10.45;;;5.60;;
77544;SDS011;66672;50.328;7.610;2023-04-25T03:27:58;12.48;;;6.47;;
77544;SDS011;66672;50.328;7.610;2023-04-25T03:30:23;15.52;;;7.38;;
77544;SDS011;66672;50.328;7.610;2023-04-25T03:32:49;14.05;;;6.38;;
77544;SDS011;66672;50.328;7.610;2023-04-25T03:35:14;15.95;;;7.00;;
77544;SDS011;66672;50.328;7.610;2023-04-25T03:37:39;15.60;;;6.68;;
77544;SDS011;66672;50.328;7.610;2023-04-25T03:40:05;12.05;;;5.60;;
77544;SDS011;66672;50.328;7.610;2023-04-25T03:42:31;14.43;;;5.78;;
77544;SDS011;66672;50.328;7.610;2023-04-25T03:44:56;16.08;;;6.30;;
77544;SDS011;66672;50.328;7.610;2023-04-25T03:47:21;11.88;;;5.80;;
77544;SDS011;66672;50.328;7.610;2023-04-25T03:49:46;11.97;;;4.90;;
77544;SDS011;66672;50.328;7.610;2023-04-25T03:52:11;12.43;;;4.82;;
77544;SDS011;66672;50.328;7.610;2023-04-25T03:54:37;11.93;;;5.82;;
77544;SDS011;66672;50.328;7.610;2023-04-25T03:57:02;11.75;;;4.80;;
77544;SDS011;66672;50.328;7.610;2023-04-25T03:59:27;10.80;;;4.95;;
77544;SDS011;66672;50.328;7.610;2023-04-25T04:01:52;12.85;;;4.57;;
77544;SDS011;66672;50.328;7.610;2023-04-25T04:04:17;13.25;;;5.03;;
77544;SDS011;66672;50.328;7.610;2023-04-25T04:06:43;12.15;;;5.38;;
77544;SDS011;66672;50.328;7.610;2023-04-25T04:09:08;13.45;;;5.82;;
77544;SDS011;66672;50.328;7.610;2023-04-25T04:11:36;14.80;;;5.40;;
77544;SDS011;66672;50.328;7.610;2023-04-25T04:14:03;13.40;;;5.28;;
77544;SDS011;66672;50.328;7.610;2023-04-25T04:16:28;18.00;;;6.57;;
77544;SDS011;66672;50.328;7.610;2023-04-25T04:18:53;14.90;;;6.88;;
77544;SDS011;66672;50.328;7.610;2023-04-25T04:21:18;14.35;;;7.20;;
77544;SDS011;66672;50.328;7.610;2023-04-25T04:23:43;15.43;;;6.75;;
77544;SDS011;66672;50.328;7.610;2023-04-25T04:26:09;13.13;;;6.47;;
77544;SDS011;66672;50.328;7.610;2023-04-25T04:28:34;15.52;;;6.70;;
77544;SDS011;66672;50.328;7.610;2023-04-25T04:31:00;14.52;;;7.03;;
77544;SDS011;66672;50.328;7.610;2023-04-25T04:33:27;20.15;;;6.18;;
77544;SDS011;66672;50.328;7.610;2023-04-25T04:35:53;16.50;;;7.25;;
77544;SDS011;66672;50.328;7.610;2023-04-25T04:38:18;15.55;;;6.55;;
77544;SDS011;66672;50.328;7.610;2023-04-25T04:40:44;19.55;;;7.65;;
77544;SDS011;66672;50.328;7.610;2023-04-25T04:43:09;15.38;;;6.75;;
77544;SDS011;66672;50.328;7.610;2023-04-25T04:45:35;18.00;;;7.65;;
77544;SDS011;66672;50.328;7.610;2023-04-25T04:48:01;20.17;;;7.95;;
77544;SDS011;66672;50.328;7.610;2023-04-25T04:50:26;17.52;;;6.93;;
77544;SDS011;66672;50.328;7.610;2023-04-25T04:52:52;14.33;;;5.77;;
77544;SDS011;66672;50.328;7.610;2023-04-25T04:55:17;12.35;;;6.95;;
77544;SDS011;66672;50.328;7.610;2023-04-25T04:57:42;12.03;;;6.73;;
77544;SDS011;66672;50.328;7.610;2023-04-25T05:00:08;13.65;;;5.40;;
77544;SDS011;66672;50.328;7.610;2023-04-25T05:02:36;15.65;;;6.10;;
77544;SDS011;66672;50.328;7.610;2023-04-25T05:05:01;16.08;;;6.40;;
77544;SDS011;66672;50.328;7.610;2023-04-25T05:07:26;14.48;;;6.72;;
77544;SDS011;66672;50.328;7.610;2023-04-25T05:09:51;16.92;;;6.47;;
77544;SDS011;66672;50.328;7.610;2023-04-25T05:12:18;15.60;;;7.07;;
77544;SDS011;66672;50.328;7.610;2023-04-25T05:14:43;18.30;;;7.18;;
77544;SDS011;66672;50.328;7.610;2023-04-25T05:17:08;12.63;;;5.65;;
77544;SDS011;66672;50.328;7.610;2023-04-25T05:19:34;11.73;;;5.65;;
77544;SDS011;66672;50.328;7.610;2023-04-25T05:21:59;14.13;;;6.28;;
77544;SDS011;66672;50.328;7.610;2023-04-25T05:24:24;14.40;;;5.90;;
77544;SDS011;66672;50.328;7.610;2023-04-25T05:26:49;16.02;;;5.70;;
77544;SDS011;66672;50.328;7.610;2023-04-25T05:29:15;17.10;;;5.85;;
77544;SDS011;66672;50.328;7.610;2023-04-25T05:31:40;18.30;;;6.07;;
77544;SDS011;66672;50.328;7.610;2023-04-25T05:34:05;13.32;;;5.97;;
77544;SDS011;66672;50.328;7.610;2023-04-25T05:36:30;13.85;;;5.45;;
77544;SDS011;66672;50.328;7.610;2023-04-25T05:38:57;12.35;;;5.63;;
77544;SDS011;66672;50.328;7.610;2023-04-25T05:41:22;16.55;;;6.30;;
77544;SDS011;66672;50.328;7.610;2023-04-25T05:43:47;11.23;;;6.03;;
77544;SDS011;66672;50.328;7.610;2023-04-25T05:46:14;16.63;;;6.10;;
77544;SDS011;66672;50.328;7.610;2023-04-25T05:48:40;18.92;;;6.28;;
77544;SDS011;66672;50.328;7.610;2023-04-25T05:51:05;16.15;;;6.03;;
77544;SDS011;66672;50.328;7.610;2023-04-25T05:53:30;14.32;;;5.80;;
77544;SDS011;66672;50.328;7.610;2023-04-25T05:55:56;16.35;;;5.80;;
77544;SDS011;66672;50.328;7.610;2023-04-25T05:58:21;13.70;;;5.43;;
77544;SDS011;66672;50.328;7.610;2023-04-25T06:00:46;16.23;;;5.55;;
77544;SDS011;66672;50.328;7.610;2023-04-25T06:03:12;12.68;;;5.05;;
77544;SDS011;66672;50.328;7.610;2023-04-25T06:05:39;15.18;;;6.53;;
77544;SDS011;66672;50.328;7.610;2023-04-25T06:08:04;16.23;;;5.45;;
77544;SDS011;66672;50.328;7.610;2023-04-25T06:10:29;15.35;;;6.10;;
77544;SDS011;66672;50.328;7.610;2023-04-25T06:12:55;14.10;;;5.35;;
77544;SDS011;66672;50.328;7.610;2023-04-25T06:15:20;16.00;;;5.55;;
77544;SDS011;66672;50.328;7.610;2023-04-25T06:17:45;12.90;;;4.95;;
77544;SDS011;66672;50.328;7.610;2023-04-25T06:20:10;12.52;;;5.65;;
77544;SDS011;66672;50.328;7.610;2023-04-25T06:22:36;13.88;;;5.40;;
77544;SDS011;66672;50.328;7.610;2023-04-25T06:25:01;14.98;;;6.60;;
77544;SDS011;66672;50.328;7.610;2023-04-25T06:27:28;13.63;;;5.03;;
77544;SDS011;66672;50.328;7.610;2023-04-25T06:29:54;13.02;;;5.03;;
77544;SDS011;66672;50.328;7.610;2023-04-25T06:32:19;16.50;;;5.00;;
77544;SDS011;66672;50.328;7.610;2023-04-25T06:34:44;16.42;;;5.82;;
77544;SDS011;66672;50.328;7.610;2023-04-25T06:37:10;13.50;;;5.72;;
77544;SDS011;66672;50.328;7.610;2023-04-25T06:39:35;12.30;;;5.63;;
77544;SDS011;66672;50.328;7.610;2023-04-25T06:42:00;14.32;;;4.50;;
77544;SDS011;66672;50.328;7.610;2023-04-25T06:44:26;15.55;;;5.30;;
77544;SDS011;66672;50.328;7.610;2023-04-25T06:46:51;10.30;;;4.68;;
77544;SDS011;66672;50.328;7.610;2023-04-25T06:49:16;14.77;;;5.10;;
77544;SDS011;66672;50.328;7.610;2023-04-25T06:51:41;10.80;;;5.28;;
77544;SDS011;66672;50.328;7.610;2023-04-25T06:54:07;15.50;;;5.90;;
77544;SDS011;66672;50.328;7.610;2023-04-25T06:56:32;15.18;;;6.13;;
77544;SDS011;66672;50.328;7.610;2023-04-25T06:58:57;11.27;;;5.38;;
77544;SDS011;66672;50.328;7.610;2023-04-25T07:01:22;13.82;;;5.65;;
77544;SDS011;66672;50.328;7.610;2023-04-25T07:03:47;12.02;;;5.10;;
77544;SDS011;66672;50.328;7.610;2023-04-25T07:06:12;13.63;;;4.78;;
77544;SDS011;66672;50.328;7.610;2023-04-25T07:08:38;14.45;;;5.53;;
77544;SDS011;66672;50.328;7.610;2023-04-25T07:11:03;15.02;;;5.15;;
77544;SDS011;66672;50.328;7.610;2023-04-25T07:13:28;15.05;;;6.07;;
77544;SDS011;66672;50.328;7.610;2023-04-25T07:15:53;17.38;;;5.70;;
77544;SDS011;66672;50.328;7.610;2023-04-25T07:18:18;10.38;;;5.03;;
77544;SDS011;66672;50.328;7.610;2023-04-25T07:20:44;16.95;;;6.18;;
77544;SDS011;66672;50.328;7.610;2023-04-25T07:23:09;12.95;;;5.65;;
77544;SDS011;66672;50.328;7.610;2023-04-25T07:25:34;17.50;;;6.40;;
77544;SDS011;66672;50.328;7.610;2023-04-25T07:28:00;18.65;;;6.78;;
77544;SDS011;66672;50.328;7.610;2023-04-25T07:30:25;13.93;;;6.28;;
77544;SDS011;66672;50.328;7.610;2023-04-25T07:32:50;13.20;;;5.53;;
77544;SDS011;66672;50.328;7.610;2023-04-25T07:35:16;12.27;;;5.97;;
77544;SDS011;66672;50.328;7.610;2023-04-25T07:37:41;12.88;;;5.43;;
77544;SDS011;66672;50.328;7.610;2023-04-25T07:40:06;10.45;;;5.53;;
77544;SDS011;66672;50.328;7.610;2023-04-25T07:42:32;12.13;;;5.63;;
77544;SDS011;66672;50.328;7.610;2023-04-25T07:44:58;14.35;;;5.97;;
77544;SDS011;66672;50.328;7.610;2023-04-25T07:47:23;13.63;;;6.25;;
77544;SDS011;66672;50.328;7.610;2023-04-25T07:49:48;11.63;;;5.90;;
77544;SDS011;66672;50.328;7.610;2023-04-25T07:52:13;16.67;;;5.93;;
77544;SDS011;66672;50.328;7.610;2023-04-25T07:54:39;18.80;;;6.28;;
77544;SDS011;66672;50.328;7.610;2023-04-25T07:57:04;12.75;;;5.65;;
77544;SDS011;66672;50.328;7.610;2023-04-25T07:59:31;10.98;;;5.13;;
77544;SDS011;66672;50.328;7.610;2023-04-25T08:01:56;11.32;;;5.45;;
77544;SDS011;66672;50.328;7.610;2023-04-25T08:04:22;12.15;;;6.55;;
77544;SDS011;66672;50.328;7.610;2023-04-25T08:06:47;13.68;;;5.97;;
77544;SDS011;66672;50.328;7.610;2023-04-25T08:09:12;13.32;;;5.50;;
77544;SDS011;66672;50.328;7.610;2023-04-25T08:11:38;14.55;;;5.68;;
77544;SDS011;66672;50.328;7.610;2023-04-25T08:14:03;13.50;;;6.10;;
77544;SDS011;66672;50.328;7.610;2023-04-25T08:16:28;9.93;;;5.32;;
77544;SDS011;66672;50.328;7.610;2023-04-25T08:18:53;14.45;;;6.00;;
77544;SDS011;66672;50.328;7.610;2023-04-25T08:21:19;15.70;;;6.15;;
77544;SDS011;66672;50.328;7.610;2023-04-25T08:23:44;12.32;;;6.10;;
77544;SDS011;66672;50.328;7.610;2023-04-25T08:26:09;10.52;;;6.10;;
77544;SDS011;66672;50.328;7.610;2023-04-25T08:28:35;14.57;;;6.30;;
77544;SDS011;66672;50.328;7.610;2023-04-25T08:31:00;14.18;;;6.25;;
77544;SDS011;66672;50.328;7.610;2023-04-25T08:33:25;15.68;;;5.72;;
77544;SDS011;66672;50.328;7.610;2023-04-25T08:35:50;14.02;;;5.45;;
77544;SDS011;66672;50.328;7.610;2023-04-25T08:38:16;10.25;;;5.22;;
77544;SDS011;66672;50.328;7.610;2023-04-25T08:40:41;16.17;;;6.00;;
77544;SDS011;66672;50.328;7.610;2023-04-25T08:43:08;11.93;;;6.00;;
77544;SDS011;66672;50.328;7.610;2023-04-25T08:45:36;13.23;;;5.10;;
77544;SDS011;66672;50.328;7.610;2023-04-25T08:48:03;11.55;;;5.20;;
77544;SDS011;66672;50.328;7.610;2023-04-25T08:50:29;12.13;;;4.47;;
77544;SDS011;66672;50.328;7.610;2023-04-25T08:52:55;11.70;;;4.80;;
77544;SDS011;66672;50.328;7.610;2023-04-25T08:55:22;11.35;;;5.03;;
77544;SDS011;66672;50.328;7.610;2023-04-25T08:57:48;10.98;;;4.80;;
77544;SDS011;66672;50.328;7.610;2023-04-25T09:00:14;6.50;;;3.78;;
77544;SDS011;66672;50.328;7.610;2023-04-25T09:02:40;9.15;;;3.88;;
77544;SDS011;66672;50.328;7.610;2023-04-25T09:05:07;8.93;;;3.88;;
77544;SDS011;66672;50.328;7.610;2023-04-25T09:07:34;11.32;;;4.75;;
77544;SDS011;66672;50.328;7.610;2023-04-25T09:09:59;9.27;;;4.28;;
77544;SDS011;66672;50.328;7.610;2023-04-25T09:12:26;15.73;;;5.50;;
77544;SDS011;66672;50.328;7.610;2023-04-25T09:15:01;9.15;;;4.10;;
77544;SDS011;66672;50.328;7.610;2023-04-25T09:17:26;9.40;;;4.43;;
77544;SDS011;66672;50.328;7.610;2023-04-25T09:19:51;11.80;;;4.43;;
77544;SDS011;66672;50.328;7.610;2023-04-25T09:22:17;10.70;;;5.28;;
77544;SDS011;66672;50.328;7.610;2023-04-25T09:24:47;13.15;;;5.10;;
77544;SDS011;66672;50.328;7.610;2023-04-25T09:27:17;13.57;;;5.38;;
77544;SDS011;66672;50.328;7.610;2023-04-25T09:29:43;9.88;;;4.75;;
77544;SDS011;66672;50.328;7.610;2023-04-25T09:32:21;9.82;;;4.70;;
77544;SDS011;66672;50.328;7.610;2023-04-25T09:37:16;13.80;;;4.55;;
77544;SDS011;66672;50.328;7.610;2023-04-25T09:39:42;10.73;;;4.25;;
77544;SDS011;66672;50.328;7.610;2023-04-25T09:42:09;9.38;;;3.80;;
77544;SDS011;66672;50.328;7.610;2023-04-25T09:44:35;7.25;;;4.75;;
77544;SDS011;66672;50.328;7.610;2023-04-25T09:47:00;13.50;;;4.03;;
77544;SDS011;66672;50.328;7.610;2023-04-25T09:49:27;14.30;;;4.53;;
77544;SDS011;66672;50.328;7.610;2023-04-25T09:51:56;8.00;;;3.30;;
77544;SDS011;66672;50.328;7.610;2023-04-25T09:54:22;10.45;;;4.20;;
77544;SDS011;66672;50.328;7.610;2023-04-25T09:56:48;9.85;;;3.70;;
77544;SDS011;66672;50.328;7.610;2023-04-25T09:59:13;14.02;;;4.35;;
77544;SDS011;66672;50.328;7.610;2023-04-25T10:01:39;8.50;;;3.60;;
77544;SDS011;66672;50.328;7.610;2023-04-25T10:04:05;12.52;;;3.88;;
77544;SDS011;66672;50.328;7.610;2023-04-25T10:06:31;9.75;;;3.80;;
77544;SDS011;66672;50.328;7.610;2023-04-25T10:08:58;11.10;;;3.85;;
77544;SDS011;66672;50.328;7.610;2023-04-25T10:11:23;9.63;;;3.10;;
77544;SDS011;66672;50.328;7.610;2023-04-25T10:13:49;14.00;;;4.75;;
77544;SDS011;66672;50.328;7.610;2023-04-25T10:16:15;11.15;;;3.40;;
77544;SDS011;66672;50.328;7.610;2023-04-25T10:18:41;11.07;;;4.20;;
77544;SDS011;66672;50.328;7.610;2023-04-25T10:21:06;9.05;;;3.70;;
77544;SDS011;66672;50.328;7.610;2023-04-25T10:23:32;8.68;;;4.05;;
77544;SDS011;66672;50.328;7.610;2023-04-25T10:25:59;15.73;;;4.03;;
77544;SDS011;66672;50.328;7.610;2023-04-25T10:28:25;8.18;;;3.72;;
77544;SDS011;66672;50.328;7.610;2023-04-25T10:30:57;10.23;;;3.13;;
77544;SDS011;66672;50.328;7.610;2023-04-25T10:33:28;8.13;;;3.20;;
77544;SDS011;66672;50.328;7.610;2023-04-25T10:35:54;8.57;;;3.47;;
77544;SDS011;66672;50.328;7.610;2023-04-25T10:38:22;7.20;;;3.13;;
77544;SDS011;66672;50.328;7.610;2023-04-25T10:41:02;7.82;;;2.70;;
77544;SDS011;66672;50.328;7.610;2023-04-25T10:45:55;6.65;;;1.98;;
77544;SDS011;66672;50.328;7.610;2023-04-25T10:48:24;6.68;;;2.40;;
77544;SDS011;66672;50.328;7.610;2023-04-25T10:50:50;10.23;;;2.55;;
77544;SDS011;66672;50.328;7.610;2023-04-25T10:53:26;14.38;;;3.00;;
77544;SDS011;66672;50.328;7.610;2023-04-25T10:55:55;11.20;;;2.90;;
77544;SDS011;66672;50.328;7.610;2023-04-25T10:58:22;8.45;;;3.22;;
77544;SDS011;66672;50.328;7.610;2023-04-25T11:00:47;6.22;;;2.30;;
77544;SDS011;66672;50.328;7.610;2023-04-25T11:03:15;7.50;;;2.33;;
77544;SDS011;66672;50.328;7.610;2023-04-25T11:05:41;5.38;;;1.88;;
77544;SDS011;66672;50.328;7.610;2023-04-25T11:08:11;9.57;;;2.28;;
77544;SDS011;66672;50.328;7.610;2023-04-25T11:10:37;6.75;;;2.28;;
77544;SDS011;66672;50.328;7.610;2023-04-25T11:13:02;7.50;;;2.25;;
77544;SDS011;66672;50.328;7.610;2023-04-25T11:15:27;8.20;;;2.35;;
77544;SDS011;66672;50.328;7.610;2023-04-25T11:17:52;7.40;;;2.15;;
77544;SDS011;66672;50.328;7.610;2023-04-25T11:20:18;8.05;;;2.40;;
77544;SDS011;66672;50.328;7.610;2023-04-25T11:22:44;7.15;;;2.50;;
77544;SDS011;66672;50.328;7.610;2023-04-25T11:25:10;5.82;;;2.83;;
77544;SDS011;66672;50.328;7.610;2023-04-25T11:27:49;11.07;;;3.30;;
77544;SDS011;66672;50.328;7.610;2023-04-25T11:30:15;13.23;;;2.92;;
77544;SDS011;66672;50.328;7.610;2023-04-25T11:32:41;6.75;;;2.72;;
77544;SDS011;66672;50.328;7.610;2023-04-25T11:35:07;5.85;;;2.65;;
77544;SDS011;66672;50.328;7.610;2023-04-25T11:37:32;6.88;;;3.15;;
77544;SDS011;66672;50.328;7.610;2023-04-25T11:39:59;12.32;;;3.33;;
77544;SDS011;66672;50.328;7.610;2023-04-25T11:42:24;7.70;;;2.83;;
77544;SDS011;66672;50.328;7.610;2023-04-25T11:44:49;6.40;;;2.90;;
77544;SDS011;66672;50.328;7.610;2023-04-25T11:47:14;8.90;;;3.25;;
77544;SDS011;66672;50.328;7.610;2023-04-25T11:49:40;7.13;;;2.85;;
77544;SDS011;66672;50.328;7.610;2023-04-25T11:52:06;7.05;;;2.75;;
77544;SDS011;66672;50.328;7.610;2023-04-25T11:54:32;9.43;;;2.97;;
77544;SDS011;66672;50.328;7.610;2023-04-25T11:56:59;8.32;;;2.90;;
77544;SDS011;66672;50.328;7.610;2023-04-25T11:59:26;12.65;;;2.85;;
77544;SDS011;66672;50.328;7.610;2023-04-25T12:01:51;8.95;;;2.97;;
77544;SDS011;66672;50.328;7.610;2023-04-25T12:04:23;9.48;;;2.88;;
77544;SDS011;66672;50.328;7.610;2023-04-25T12:06:50;6.30;;;2.50;;
77544;SDS011;66672;50.328;7.610;2023-04-25T12:09:17;10.10;;;2.72;;
77544;SDS011;66672;50.328;7.610;2023-04-25T12:14:08;4.45;;;2.20;;
77544;SDS011;66672;50.328;7.610;2023-04-25T12:16:44;8.25;;;3.17;;
77544;SDS011;66672;50.328;7.610;2023-04-25T12:19:09;4.22;;;2.58;;
77544;SDS011;66672;50.328;7.610;2023-04-25T12:21:35;8.85;;;3.60;;
77544;SDS011;66672;50.328;7.610;2023-04-25T12:24:10;6.82;;;3.05;;
77544;SDS011;66672;50.328;7.610;2023-04-25T12:29:25;11.38;;;2.95;;
77544;SDS011;66672;50.328;7.610;2023-04-25T12:31:51;8.80;;;2.97;;
77544;SDS011;66672;50.328;7.610;2023-04-25T12:34:17;7.35;;;2.33;;
77544;SDS011;66672;50.328;7.610;2023-04-25T12:36:42;8.88;;;2.53;;
77544;SDS011;66672;50.328;7.610;2023-04-25T12:39:07;6.80;;;1.90;;
77544;SDS011;66672;50.328;7.610;2023-04-25T12:41:32;8.32;;;3.50;;
77544;SDS011;66672;50.328;7.610;2023-04-25T12:43:58;6.45;;;2.30;;
77544;SDS011;66672;50.328;7.610;2023-04-25T12:46:23;7.32;;;2.13;;
77544;SDS011;66672;50.328;7.610;2023-04-25T12:48:48;8.88;;;2.50;;
77544;SDS011;66672;50.328;7.610;2023-04-25T12:51:14;6.05;;;2.20;;
77544;SDS011;66672;50.328;7.610;2023-04-25T12:53:39;6.18;;;2.20;;
77544;SDS011;66672;50.328;7.610;2023-04-25T12:56:05;7.15;;;2.13;;
77544;SDS011;66672;50.328;7.610;2023-04-25T12:58:31;7.40;;;2.45;;
77544;SDS011;66672;50.328;7.610;2023-04-25T13:00:58;5.57;;;2.13;;
77544;SDS011;66672;50.328;7.610;2023-04-25T13:03:23;4.72;;;1.92;;
77544;SDS011;66672;50.328;7.610;2023-04-25T13:05:48;6.80;;;2.50;;
77544;SDS011;66672;50.328;7.610;2023-04-25T13:08:15;8.50;;;2.50;;
77544;SDS011;66672;50.328;7.610;2023-04-25T13:10:40;7.13;;;2.00;;
77544;SDS011;66672;50.328;7.610;2023-04-25T13:13:05;10.68;;;2.35;;
77544;SDS011;66672;50.328;7.610;2023-04-25T13:15:31;5.55;;;2.13;;
77544;SDS011;66672;50.328;7.610;2023-04-25T13:17:56;9.07;;;2.80;;
77544;SDS011;66672;50.328;7.610;2023-04-25T13:20:21;4.72;;;2.03;;
77544;SDS011;66672;50.328;7.610;2023-04-25T13:22:47;7.75;;;2.17;;
77544;SDS011;66672;50.328;7.610;2023-04-25T13:25:12;7.60;;;2.40;;
77544;SDS011;66672;50.328;7.610;2023-04-25T13:27:39;9.52;;;2.20;;
77544;SDS011;66672;50.328;7.610;2023-04-25T13:30:05;6.03;;;1.90;;
77544;SDS011;66672;50.328;7.610;2023-04-25T13:32:34;8.70;;;2.63;;
77544;SDS011;66672;50.328;7.610;2023-04-25T13:35:01;6.65;;;2.08;;
77544;SDS011;66672;50.328;7.610;2023-04-25T13:37:27;6.55;;;2.38;;
77544;SDS011;66672;50.328;7.610;2023-04-25T13:39:52;6.70;;;1.80;;
77544;SDS011;66672;50.328;7.610;2023-04-25T13:42:18;6.78;;;2.08;;
77544;SDS011;66672;50.328;7.610;2023-04-25T13:44:44;4.15;;;1.65;;
77544;SDS011;66672;50.328;7.610;2023-04-25T13:47:09;8.27;;;1.67;;
77544;SDS011;66672;50.328;7.610;2023-04-25T13:49:34;5.47;;;2.05;;
77544;SDS011;66672;50.328;7.610;2023-04-25T13:51:59;4.07;;;1.73;;
77544;SDS011;66672;50.328;7.610;2023-04-25T13:54:25;9.57;;;2.53;;
77544;SDS011;66672;50.328;7.610;2023-04-25T13:56:50;6.38;;;2.05;;
77544;SDS011;66672;50.328;7.610;2023-04-25T13:59:16;5.00;;;2.42;;
77544;SDS011;66672;50.328;7.610;2023-04-25T14:01:42;8.13;;;2.65;;
77544;SDS011;66672;50.328;7.610;2023-04-25T14:04:07;13.43;;;2.90;;
77544;SDS011;66672;50.328;7.610;2023-04-25T14:06:32;8.50;;;2.33;;
77544;SDS011;66672;50.328;7.610;2023-04-25T14:08:57;9.32;;;3.05;;
77544;SDS011;66672;50.328;7.610;2023-04-25T14:11:25;7.32;;;2.15;;
77544;SDS011;66672;50.328;7.610;2023-04-25T14:13:50;5.70;;;2.00;;
77544;SDS011;66672;50.328;7.610;2023-04-25T14:16:15;7.05;;;2.65;;
77544;SDS011;66672;50.328;7.610;2023-04-25T14:18:41;4.82;;;2.70;;
77544;SDS011;66672;50.328;7.610;2023-04-25T14:21:06;7.63;;;2.53;;
77544;SDS011;66672;50.328;7.610;2023-04-25T14:23:31;5.40;;;2.03;;
77544;SDS011;66672;50.328;7.610;2023-04-25T14:25:56;7.30;;;2.33;;
77544;SDS011;66672;50.328;7.610;2023-04-25T14:28:21;7.45;;;2.65;;
77544;SDS011;66672;50.328;7.610;2023-04-25T14:30:46;5.80;;;2.40;;
77544;SDS011;66672;50.328;7.610;2023-04-25T14:33:12;6.70;;;2.08;;
77544;SDS011;66672;50.328;7.610;2023-04-25T14:35:38;7.13;;;2.38;;
77544;SDS011;66672;50.328;7.610;2023-04-25T14:38:03;4.72;;;1.85;;
77544;SDS011;66672;50.328;7.610;2023-04-25T14:40:30;6.20;;;1.90;;